createdAt,value
2022-10-22T00:07:53.021Z,100.00
2022-10-22T00:17:54.365Z,100.00
2022-10-22T00:27:55.967Z,100.00
2022-10-22T00:37:57.301Z,100.00
2022-10-22T00:48:18.337Z,100.00
2022-10-22T00:58:24.138Z,100.00
2022-10-22T01:08:41.287Z,100.00
2022-10-22T01:18:54.796Z,100.00
2022-10-22T01:29:25.168Z,100.00
2022-10-22T01:39:29.259Z,100.00
2022-10-22T01:49:44.854Z,100.00
2022-10-22T02:00:00.716Z,100.00
2022-10-22T02:21:24.428Z,100.00
2022-10-22T02:31:32.505Z,100.00
2022-10-22T02:41:34.312Z,100.00
2022-10-22T02:51:35.651Z,100.00
2022-10-22T03:01:36.986Z,100.00
2022-10-22T03:11:38.353Z,100.00
2022-10-22T03:21:43.928Z,100.00
2022-10-22T03:31:45.271Z,100.00
2022-10-22T03:41:49.281Z,100.00
2022-10-22T03:51:50.688Z,100.00
2022-10-22T04:01:52.062Z,100.00
2022-10-22T04:11:53.381Z,100.00
2022-10-22T04:21:54.752Z,100.00
2022-10-22T04:31:56.224Z,100.00
2022-10-22T04:41:57.560Z,100.00
2022-10-22T04:51:58.944Z,100.00
2022-10-22T05:02:00.309Z,100.00
2022-10-22T05:12:01.665Z,100.00
2022-10-22T05:22:04.648Z,100.00
2022-10-22T05:32:06.022Z,100.00
2022-10-22T05:42:07.372Z,100.00
2022-10-22T05:52:08.743Z,100.00
2022-10-22T06:02:10.291Z,100.00
2022-10-22T06:12:13.646Z,100.00
2022-10-22T06:22:14.982Z,100.00
2022-10-22T06:32:16.336Z,100.00
2022-10-22T06:42:17.735Z,100.00
2022-10-22T06:52:19.141Z,100.00
2022-10-22T07:02:20.457Z,100.00
2022-10-22T07:12:21.806Z,100.00
2022-10-22T07:22:23.140Z,100.00
2022-10-22T07:32:24.515Z,100.00
2022-10-22T07:42:25.904Z,100.00
2022-10-22T07:52:27.720Z,100.00
2022-10-22T08:02:29.050Z,100.00
2022-10-22T08:12:30.432Z,100.00
2022-10-22T08:22:31.911Z,100.00
2022-10-22T08:32:33.368Z,100.00
2022-10-22T08:43:09.205Z,100.00
2022-10-22T08:53:17.336Z,100.00
2022-10-22T09:03:21.434Z,100.00
2022-10-22T09:13:23.761Z,100.00
2022-10-22T09:23:49.920Z,98.73
2022-10-22T09:33:51.462Z,98.13
2022-10-22T09:43:52.920Z,98.47
2022-10-22T09:54:00.069Z,97.48
2022-10-22T10:04:09.629Z,96.08
2022-10-22T10:14:21.381Z,95.17
2022-10-22T10:24:41.223Z,95.87
2022-10-22T10:34:57.853Z,94.56
2022-10-22T10:45:16.714Z,94.88
2022-10-22T10:55:30.853Z,95.71
2022-10-22T11:05:39.756Z,95.64
2022-10-22T11:15:44.260Z,93.03
2022-10-22T11:25:48.004Z,91.83
2022-10-22T11:35:51.022Z,92.16
2022-10-22T11:46:00.791Z,91.88
2022-10-22T11:56:09.816Z,92.82
2022-10-22T12:06:11.949Z,89.57
2022-10-22T12:16:14.938Z,90.77
2022-10-22T12:36:36.417Z,90.63
2022-10-22T12:46:37.768Z,90.77
2022-10-22T12:56:39.238Z,88.90
2022-10-22T13:06:45.113Z,88.12
2022-10-22T13:17:19.400Z,88.98
2022-10-22T13:27:20.735Z,88.27
2022-10-22T13:37:22.249Z,89.03
2022-10-22T13:47:26.946Z,89.13
2022-10-22T13:57:28.287Z,88.62
2022-10-22T14:07:29.747Z,86.99
2022-10-22T14:17:31.608Z,88.79
2022-10-22T14:27:32.966Z,88.95
2022-10-22T14:37:34.330Z,87.82
2022-10-22T14:47:35.689Z,87.61
2022-10-22T14:57:39.198Z,89.06
2022-10-22T15:07:41.806Z,87.18
2022-10-22T15:17:43.792Z,85.86
2022-10-22T15:27:50.346Z,88.19
2022-10-22T15:37:53.151Z,88.39
2022-10-22T15:47:54.495Z,87.86
2022-10-22T15:57:58.034Z,88.48
2022-10-22T16:08:01.939Z,88.07
2022-10-22T16:18:03.482Z,87.47
2022-10-22T16:28:05.128Z,88.26
2022-10-22T16:38:06.878Z,88.59
2022-10-22T16:48:09.024Z,89.37
2022-10-22T16:58:10.371Z,89.83
2022-10-22T17:08:11.903Z,89.96
2022-10-22T17:18:13.350Z,90.60
2022-10-22T17:28:14.672Z,91.04
2022-10-22T17:38:15.986Z,91.58
2022-10-22T17:48:17.417Z,92.38
2022-10-22T17:58:18.765Z,92.25
2022-10-22T18:08:20.152Z,91.84
2022-10-22T18:18:23.147Z,92.16
2022-10-22T18:28:24.581Z,92.38
2022-10-22T18:38:25.916Z,92.73
2022-10-22T18:48:27.315Z,92.58
2022-10-22T18:58:28.638Z,92.32
2022-10-22T19:08:30.221Z,92.80
2022-10-22T19:18:31.714Z,93.34
2022-10-22T19:28:33.286Z,92.81
2022-10-22T19:38:37.629Z,93.57
2022-10-22T19:48:39.407Z,93.08
2022-10-22T19:58:40.817Z,94.01
2022-10-22T20:08:42.485Z,95.18
2022-10-22T20:18:43.876Z,95.71
2022-10-22T20:28:45.200Z,94.61
2022-10-22T20:38:48.117Z,95.46
2022-10-22T20:48:55.044Z,96.65
2022-10-22T20:59:04.726Z,94.95
2022-10-22T21:09:08.218Z,95.56
2022-10-22T21:19:09.707Z,95.83
2022-10-22T21:29:12.375Z,96.13
2022-10-22T21:39:14.058Z,96.76
2022-10-22T21:49:15.450Z,94.66
2022-10-22T21:59:16.795Z,96.48
2022-10-22T22:09:18.720Z,96.23
2022-10-22T22:19:20.137Z,97.81
2022-10-22T22:29:21.500Z,95.72
2022-10-22T22:39:24.127Z,95.44
2022-10-22T22:49:25.487Z,96.56
2022-10-22T22:59:26.897Z,95.58
2022-10-22T23:09:28.264Z,95.98
2022-10-22T23:19:29.662Z,95.33
2022-10-22T23:29:33.603Z,95.85
2022-10-22T23:39:34.978Z,95.98
2022-10-22T23:49:36.341Z,95.53
2022-10-22T23:59:37.701Z,96.67
